sensor_id;sensor_type;location;lat;lon;timestamp;P1;durP1;ratioP1;P2;durP2;ratioP2
11835;SDS011;5977;51.972;7.640;2022-12-01T00:01:18;151.70;;;47.70;;
11835;SDS011;5977;51.972;7.640;2022-12-01T00:03:46;151.67;;;47.80;;
11835;SDS011;5977;51.972;7.640;2022-12-01T00:06:15;151.93;;;47.80;;
11835;SDS011;5977;51.972;7.640;2022-12-01T00:08:44;151.77;;;47.77;;
11835;SDS011;5977;51.972;7.640;2022-12-01T00:11:27;151.93;;;47.90;;
11835;SDS011;5977;51.972;7.640;2022-12-01T00:13:57;152.03;;;48.03;;
11835;SDS011;5977;51.972;7.640;2022-12-01T00:16:24;151.87;;;47.80;;
11835;SDS011;5977;51.972;7.640;2022-12-01T00:18:52;151.97;;;47.93;;
11835;SDS011;5977;51.972;7.640;2022-12-01T00:21:21;151.57;;;47.80;;
11835;SDS011;5977;51.972;7.640;2022-12-01T00:23:51;152.57;;;48.13;;
11835;SDS011;5977;51.972;7.640;2022-12-01T00:26:21;152.60;;;48.20;;
11835;SDS011;5977;51.972;7.640;2022-12-01T00:28:49;152.30;;;47.97;;
11835;SDS011;5977;51.972;7.640;2022-12-01T00:31:19;154.47;;;48.47;;
11835;SDS011;5977;51.972;7.640;2022-12-01T00:33:48;154.23;;;48.37;;
11835;SDS011;5977;51.972;7.640;2022-12-01T00:36:16;154.93;;;48.53;;
11835;SDS011;5977;51.972;7.640;2022-12-01T00:38:43;153.43;;;48.20;;
11835;SDS011;5977;51.972;7.640;2022-12-01T00:41:11;153.57;;;48.10;;
11835;SDS011;5977;51.972;7.640;2022-12-01T00:43:40;153.50;;;48.23;;
11835;SDS011;5977;51.972;7.640;2022-12-01T00:46:07;152.83;;;48.10;;
11835;SDS011;5977;51.972;7.640;2022-12-01T00:48:37;153.37;;;48.23;;
11835;SDS011;5977;51.972;7.640;2022-12-01T00:51:05;152.57;;;48.00;;
11835;SDS011;5977;51.972;7.640;2022-12-01T00:53:33;152.90;;;48.07;;
11835;SDS011;5977;51.972;7.640;2022-12-01T00:56:01;153.40;;;48.23;;
11835;SDS011;5977;51.972;7.640;2022-12-01T00:58:29;153.13;;;48.10;;
11835;SDS011;5977;51.972;7.640;2022-12-01T01:00:57;153.00;;;48.07;;
11835;SDS011;5977;51.972;7.640;2022-12-01T01:03:26;153.30;;;48.13;;
11835;SDS011;5977;51.972;7.640;2022-12-01T01:06:01;153.77;;;48.30;;
11835;SDS011;5977;51.972;7.640;2022-12-01T01:08:31;153.47;;;48.20;;
11835;SDS011;5977;51.972;7.640;2022-12-01T01:10:59;154.07;;;48.47;;
11835;SDS011;5977;51.972;7.640;2022-12-01T01:13:28;153.60;;;48.27;;
11835;SDS011;5977;51.972;7.640;2022-12-01T01:15:57;153.63;;;48.27;;
11835;SDS011;5977;51.972;7.640;2022-12-01T01:18:26;153.37;;;48.10;;
11835;SDS011;5977;51.972;7.640;2022-12-01T01:20:54;153.40;;;48.23;;
11835;SDS011;5977;51.972;7.640;2022-12-01T01:23:25;153.30;;;48.10;;
11835;SDS011;5977;51.972;7.640;2022-12-01T01:25:52;152.97;;;48.00;;
11835;SDS011;5977;51.972;7.640;2022-12-01T01:28:20;153.03;;;48.07;;
11835;SDS011;5977;51.972;7.640;2022-12-01T01:30:48;153.07;;;48.17;;
11835;SDS011;5977;51.972;7.640;2022-12-01T01:33:16;153.57;;;48.30;;
11835;SDS011;5977;51.972;7.640;2022-12-01T01:35:44;152.63;;;47.97;;
11835;SDS011;5977;51.972;7.640;2022-12-01T01:38:13;153.23;;;48.17;;
11835;SDS011;5977;51.972;7.640;2022-12-01T01:40:41;153.37;;;48.20;;
11835;SDS011;5977;51.972;7.640;2022-12-01T01:43:12;152.87;;;48.10;;
11835;SDS011;5977;51.972;7.640;2022-12-01T01:45:42;152.87;;;48.07;;
11835;SDS011;5977;51.972;7.640;2022-12-01T01:48:10;153.07;;;48.07;;
11835;SDS011;5977;51.972;7.640;2022-12-01T01:50:40;153.20;;;48.20;;
11835;SDS011;5977;51.972;7.640;2022-12-01T01:53:09;152.60;;;47.90;;
11835;SDS011;5977;51.972;7.640;2022-12-01T01:55:39;153.00;;;48.17;;
11835;SDS011;5977;51.972;7.640;2022-12-01T01:58:08;152.97;;;48.20;;
11835;SDS011;5977;51.972;7.640;2022-12-01T02:00:37;153.07;;;48.17;;
11835;SDS011;5977;51.972;7.640;2022-12-01T02:03:07;152.60;;;48.00;;
11835;SDS011;5977;51.972;7.640;2022-12-01T02:05:39;152.60;;;48.07;;
11835;SDS011;5977;51.972;7.640;2022-12-01T02:08:09;153.00;;;48.20;;
11835;SDS011;5977;51.972;7.640;2022-12-01T02:10:44;152.93;;;48.10;;
11835;SDS011;5977;51.972;7.640;2022-12-01T02:13:24;152.60;;;48.00;;
11835;SDS011;5977;51.972;7.640;2022-12-01T02:16:00;153.17;;;48.30;;
11835;SDS011;5977;51.972;7.640;2022-12-01T02:18:36;152.60;;;48.10;;
11835;SDS011;5977;51.972;7.640;2022-12-01T02:21:18;153.27;;;48.30;;
11835;SDS011;5977;51.972;7.640;2022-12-01T02:27:15;153.27;;;48.17;;
11835;SDS011;5977;51.972;7.640;2022-12-01T02:32:51;153.23;;;48.30;;
11835;SDS011;5977;51.972;7.640;2022-12-01T02:35:28;153.07;;;48.20;;
11835;SDS011;5977;51.972;7.640;2022-12-01T02:38:07;153.17;;;48.20;;
11835;SDS011;5977;51.972;7.640;2022-12-01T02:40:42;153.50;;;48.30;;
11835;SDS011;5977;51.972;7.640;2022-12-01T02:43:15;152.93;;;48.10;;
11835;SDS011;5977;51.972;7.640;2022-12-01T02:45:48;152.63;;;47.97;;
11835;SDS011;5977;51.972;7.640;2022-12-01T02:48:23;153.10;;;48.37;;
11835;SDS011;5977;51.972;7.640;2022-12-01T02:50:54;152.90;;;48.07;;
11835;SDS011;5977;51.972;7.640;2022-12-01T02:53:24;153.00;;;48.10;;
11835;SDS011;5977;51.972;7.640;2022-12-01T02:55:53;152.80;;;48.03;;
11835;SDS011;5977;51.972;7.640;2022-12-01T02:58:22;153.07;;;48.17;;
11835;SDS011;5977;51.972;7.640;2022-12-01T03:00:56;153.27;;;48.27;;
11835;SDS011;5977;51.972;7.640;2022-12-01T03:03:42;152.77;;;47.97;;
11835;SDS011;5977;51.972;7.640;2022-12-01T03:06:26;152.23;;;47.97;;
11835;SDS011;5977;51.972;7.640;2022-12-01T03:09:06;153.20;;;48.20;;
11835;SDS011;5977;51.972;7.640;2022-12-01T03:11:43;151.57;;;47.70;;
11835;SDS011;5977;51.972;7.640;2022-12-01T03:14:17;153.83;;;48.47;;
11835;SDS011;5977;51.972;7.640;2022-12-01T03:16:55;152.90;;;48.00;;
11835;SDS011;5977;51.972;7.640;2022-12-01T03:19:28;153.07;;;48.20;;
11835;SDS011;5977;51.972;7.640;2022-12-01T03:22:03;152.10;;;47.87;;
11835;SDS011;5977;51.972;7.640;2022-12-01T03:24:35;153.23;;;48.17;;
11835;SDS011;5977;51.972;7.640;2022-12-01T03:27:05;152.90;;;48.03;;
11835;SDS011;5977;51.972;7.640;2022-12-01T03:29:35;152.80;;;48.13;;
11835;SDS011;5977;51.972;7.640;2022-12-01T03:32:08;152.50;;;48.00;;
11835;SDS011;5977;51.972;7.640;2022-12-01T03:34:41;152.63;;;48.07;;
11835;SDS011;5977;51.972;7.640;2022-12-01T03:37:15;151.90;;;47.77;;
11835;SDS011;5977;51.972;7.640;2022-12-01T03:39:47;152.63;;;48.07;;
11835;SDS011;5977;51.972;7.640;2022-12-01T03:42:24;152.23;;;47.83;;
11835;SDS011;5977;51.972;7.640;2022-12-01T03:44:56;152.37;;;47.97;;
11835;SDS011;5977;51.972;7.640;2022-12-01T03:47:28;152.13;;;47.93;;
11835;SDS011;5977;51.972;7.640;2022-12-01T03:49:58;152.63;;;48.03;;
11835;SDS011;5977;51.972;7.640;2022-12-01T03:52:29;152.50;;;47.97;;
11835;SDS011;5977;51.972;7.640;2022-12-01T03:55:06;152.27;;;47.90;;
11835;SDS011;5977;51.972;7.640;2022-12-01T03:57:39;152.20;;;47.80;;
11835;SDS011;5977;51.972;7.640;2022-12-01T04:00:12;152.10;;;47.80;;
11835;SDS011;5977;51.972;7.640;2022-12-01T04:02:42;152.53;;;48.03;;
11835;SDS011;5977;51.972;7.640;2022-12-01T04:05:12;152.33;;;48.03;;
11835;SDS011;5977;51.972;7.640;2022-12-01T04:07:40;152.17;;;47.77;;
11835;SDS011;5977;51.972;7.640;2022-12-01T04:10:08;152.53;;;48.00;;
11835;SDS011;5977;51.972;7.640;2022-12-01T04:12:36;151.97;;;47.83;;
11835;SDS011;5977;51.972;7.640;2022-12-01T04:15:04;152.37;;;47.93;;
11835;SDS011;5977;51.972;7.640;2022-12-01T04:17:34;152.13;;;47.77;;
11835;SDS011;5977;51.972;7.640;2022-12-01T04:20:03;152.53;;;48.10;;
11835;SDS011;5977;51.972;7.640;2022-12-01T04:22:34;152.30;;;47.93;;
11835;SDS011;5977;51.972;7.640;2022-12-01T04:25:02;153.10;;;48.23;;
11835;SDS011;5977;51.972;7.640;2022-12-01T04:27:30;152.53;;;48.00;;
11835;SDS011;5977;51.972;7.640;2022-12-01T04:29:58;152.67;;;48.10;;
11835;SDS011;5977;51.972;7.640;2022-12-01T04:32:26;152.27;;;48.00;;
11835;SDS011;5977;51.972;7.640;2022-12-01T04:34:54;152.73;;;48.10;;
11835;SDS011;5977;51.972;7.640;2022-12-01T04:37:22;152.43;;;47.97;;
11835;SDS011;5977;51.972;7.640;2022-12-01T04:39:51;152.63;;;48.07;;
11835;SDS011;5977;51.972;7.640;2022-12-01T04:42:19;153.00;;;48.17;;
11835;SDS011;5977;51.972;7.640;2022-12-01T04:44:46;152.50;;;48.00;;
11835;SDS011;5977;51.972;7.640;2022-12-01T04:47:14;153.47;;;48.33;;
11835;SDS011;5977;51.972;7.640;2022-12-01T04:49:42;153.03;;;48.20;;
11835;SDS011;5977;51.972;7.640;2022-12-01T04:52:10;152.77;;;47.97;;
11835;SDS011;5977;51.972;7.640;2022-12-01T04:54:38;151.97;;;47.77;;
11835;SDS011;5977;51.972;7.640;2022-12-01T04:57:07;152.67;;;48.10;;
11835;SDS011;5977;51.972;7.640;2022-12-01T04:59:35;153.23;;;48.23;;
11835;SDS011;5977;51.972;7.640;2022-12-01T05:02:03;152.87;;;48.20;;
11835;SDS011;5977;51.972;7.640;2022-12-01T05:04:31;153.00;;;48.10;;
11835;SDS011;5977;51.972;7.640;2022-12-01T05:06:59;152.53;;;48.00;;
11835;SDS011;5977;51.972;7.640;2022-12-01T05:09:27;153.67;;;48.47;;
11835;SDS011;5977;51.972;7.640;2022-12-01T05:11:55;153.20;;;48.20;;
11835;SDS011;5977;51.972;7.640;2022-12-01T05:14:24;152.97;;;48.17;;
11835;SDS011;5977;51.972;7.640;2022-12-01T05:16:52;152.83;;;48.03;;
11835;SDS011;5977;51.972;7.640;2022-12-01T05:19:21;152.97;;;48.17;;
11835;SDS011;5977;51.972;7.640;2022-12-01T05:22:06;153.00;;;48.07;;
11835;SDS011;5977;51.972;7.640;2022-12-01T05:24:34;153.37;;;48.30;;
11835;SDS011;5977;51.972;7.640;2022-12-01T05:27:01;153.47;;;48.30;;
11835;SDS011;5977;51.972;7.640;2022-12-01T05:29:31;153.07;;;48.17;;
11835;SDS011;5977;51.972;7.640;2022-12-01T05:31:59;153.57;;;48.33;;
11835;SDS011;5977;51.972;7.640;2022-12-01T05:34:28;153.57;;;48.40;;
11835;SDS011;5977;51.972;7.640;2022-12-01T05:36:56;154.10;;;48.63;;
11835;SDS011;5977;51.972;7.640;2022-12-01T05:39:23;154.20;;;48.50;;
11835;SDS011;5977;51.972;7.640;2022-12-01T05:41:51;154.37;;;48.50;;
11835;SDS011;5977;51.972;7.640;2022-12-01T05:44:19;153.60;;;48.40;;
11835;SDS011;5977;51.972;7.640;2022-12-01T05:46:48;153.30;;;48.27;;
11835;SDS011;5977;51.972;7.640;2022-12-01T05:49:16;153.50;;;48.23;;
11835;SDS011;5977;51.972;7.640;2022-12-01T05:51:44;153.77;;;48.37;;
11835;SDS011;5977;51.972;7.640;2022-12-01T05:54:12;153.27;;;48.13;;
11835;SDS011;5977;51.972;7.640;2022-12-01T05:56:41;153.37;;;48.17;;
11835;SDS011;5977;51.972;7.640;2022-12-01T05:59:09;153.63;;;48.30;;
11835;SDS011;5977;51.972;7.640;2022-12-01T06:01:37;153.33;;;48.20;;
11835;SDS011;5977;51.972;7.640;2022-12-01T06:04:06;153.10;;;48.20;;
11835;SDS011;5977;51.972;7.640;2022-12-01T06:06:34;153.40;;;48.27;;
11835;SDS011;5977;51.972;7.640;2022-12-01T06:09:02;153.40;;;48.30;;
11835;SDS011;5977;51.972;7.640;2022-12-01T06:11:30;153.20;;;48.20;;
11835;SDS011;5977;51.972;7.640;2022-12-01T06:13:58;153.30;;;48.17;;
11835;SDS011;5977;51.972;7.640;2022-12-01T06:16:26;152.67;;;48.17;;
11835;SDS011;5977;51.972;7.640;2022-12-01T06:18:53;153.50;;;48.30;;
11835;SDS011;5977;51.972;7.640;2022-12-01T06:21:23;153.47;;;48.30;;
11835;SDS011;5977;51.972;7.640;2022-12-01T06:23:50;152.93;;;48.13;;
11835;SDS011;5977;51.972;7.640;2022-12-01T06:26:18;153.03;;;48.13;;
11835;SDS011;5977;51.972;7.640;2022-12-01T06:28:46;152.60;;;48.00;;
11835;SDS011;5977;51.972;7.640;2022-12-01T06:31:14;151.90;;;47.77;;
11835;SDS011;5977;51.972;7.640;2022-12-01T06:33:42;152.27;;;47.83;;
11835;SDS011;5977;51.972;7.640;2022-12-01T06:36:10;152.50;;;48.07;;
11835;SDS011;5977;51.972;7.640;2022-12-01T06:38:39;153.03;;;48.23;;
11835;SDS011;5977;51.972;7.640;2022-12-01T06:41:07;153.10;;;48.07;;
11835;SDS011;5977;51.972;7.640;2022-12-01T06:43:35;152.73;;;48.10;;
11835;SDS011;5977;51.972;7.640;2022-12-01T06:46:03;151.90;;;47.73;;
11835;SDS011;5977;51.972;7.640;2022-12-01T06:48:31;152.20;;;47.90;;
11835;SDS011;5977;51.972;7.640;2022-12-01T06:51:00;152.43;;;47.97;;
11835;SDS011;5977;51.972;7.640;2022-12-01T06:53:28;152.20;;;47.93;;
11835;SDS011;5977;51.972;7.640;2022-12-01T06:55:59;152.33;;;47.87;;
11835;SDS011;5977;51.972;7.640;2022-12-01T06:58:28;153.07;;;48.33;;
11835;SDS011;5977;51.972;7.640;2022-12-01T07:00:56;152.37;;;48.10;;
11835;SDS011;5977;51.972;7.640;2022-12-01T07:03:24;153.20;;;48.20;;
11835;SDS011;5977;51.972;7.640;2022-12-01T07:05:53;153.03;;;48.27;;
11835;SDS011;5977;51.972;7.640;2022-12-01T07:08:23;153.50;;;48.30;;
11835;SDS011;5977;51.972;7.640;2022-12-01T07:10:57;152.77;;;48.17;;
11835;SDS011;5977;51.972;7.640;2022-12-01T07:13:27;152.97;;;48.10;;
11835;SDS011;5977;51.972;7.640;2022-12-01T07:15:59;152.03;;;47.90;;
11835;SDS011;5977;51.972;7.640;2022-12-01T07:18:27;151.60;;;47.70;;
11835;SDS011;5977;51.972;7.640;2022-12-01T07:20:57;151.87;;;47.87;;
11835;SDS011;5977;51.972;7.640;2022-12-01T07:23:26;151.53;;;47.80;;
11835;SDS011;5977;51.972;7.640;2022-12-01T07:25:57;152.47;;;48.07;;
11835;SDS011;5977;51.972;7.640;2022-12-01T07:28:27;151.63;;;47.77;;
11835;SDS011;5977;51.972;7.640;2022-12-01T07:30:59;151.80;;;47.90;;
11835;SDS011;5977;51.972;7.640;2022-12-01T07:33:28;151.97;;;47.93;;
11835;SDS011;5977;51.972;7.640;2022-12-01T07:35:57;151.63;;;47.70;;
11835;SDS011;5977;51.972;7.640;2022-12-01T07:38:26;151.67;;;47.80;;
11835;SDS011;5977;51.972;7.640;2022-12-01T07:40:59;152.03;;;48.00;;
11835;SDS011;5977;51.972;7.640;2022-12-01T07:43:29;152.27;;;47.97;;
11835;SDS011;5977;51.972;7.640;2022-12-01T07:46:02;152.33;;;48.03;;
11835;SDS011;5977;51.972;7.640;2022-12-01T07:48:31;151.83;;;47.90;;
11835;SDS011;5977;51.972;7.640;2022-12-01T07:50:59;151.93;;;47.90;;
11835;SDS011;5977;51.972;7.640;2022-12-01T07:53:27;151.53;;;47.80;;
11835;SDS011;5977;51.972;7.640;2022-12-01T07:55:55;151.27;;;47.67;;
11835;SDS011;5977;51.972;7.640;2022-12-01T07:58:31;151.20;;;47.57;;
11835;SDS011;5977;51.972;7.640;2022-12-01T08:01:04;149.93;;;47.10;;
11835;SDS011;5977;51.972;7.640;2022-12-01T08:03:33;150.80;;;47.50;;
11835;SDS011;5977;51.972;7.640;2022-12-01T08:06:01;149.70;;;47.13;;
11835;SDS011;5977;51.972;7.640;2022-12-01T08:08:30;149.77;;;47.17;;
11835;SDS011;5977;51.972;7.640;2022-12-01T08:10:59;150.77;;;47.50;;
11835;SDS011;5977;51.972;7.640;2022-12-01T08:13:28;149.90;;;47.17;;
11835;SDS011;5977;51.972;7.640;2022-12-01T08:15:57;150.43;;;47.40;;
11835;SDS011;5977;51.972;7.640;2022-12-01T08:18:25;151.43;;;48.53;;
11835;SDS011;5977;51.972;7.640;2022-12-01T08:20:55;150.20;;;47.43;;
11835;SDS011;5977;51.972;7.640;2022-12-01T08:23:24;148.90;;;46.93;;
11835;SDS011;5977;51.972;7.640;2022-12-01T08:25:52;149.33;;;47.20;;
11835;SDS011;5977;51.972;7.640;2022-12-01T08:28:20;148.77;;;47.00;;
11835;SDS011;5977;51.972;7.640;2022-12-01T08:30:47;148.50;;;47.00;;
11835;SDS011;5977;51.972;7.640;2022-12-01T08:33:17;148.40;;;46.90;;
11835;SDS011;5977;51.972;7.640;2022-12-01T08:35:45;148.90;;;47.03;;
11835;SDS011;5977;51.972;7.640;2022-12-01T08:38:13;149.03;;;47.03;;
11835;SDS011;5977;51.972;7.640;2022-12-01T08:40:41;148.73;;;47.10;;
11835;SDS011;5977;51.972;7.640;2022-12-01T08:43:08;148.67;;;47.00;;
11835;SDS011;5977;51.972;7.640;2022-12-01T08:45:57;148.30;;;46.83;;
11835;SDS011;5977;51.972;7.640;2022-12-01T08:48:27;148.67;;;47.00;;
11835;SDS011;5977;51.972;7.640;2022-12-01T08:51:05;148.57;;;46.97;;
11835;SDS011;5977;51.972;7.640;2022-12-01T08:53:34;148.67;;;47.03;;
11835;SDS011;5977;51.972;7.640;2022-12-01T08:56:11;148.20;;;46.80;;
11835;SDS011;5977;51.972;7.640;2022-12-01T08:58:41;148.27;;;46.90;;
11835;SDS011;5977;51.972;7.640;2022-12-01T09:01:09;147.80;;;46.77;;
11835;SDS011;5977;51.972;7.640;2022-12-01T09:03:40;148.07;;;46.90;;
11835;SDS011;5977;51.972;7.640;2022-12-01T09:06:09;147.53;;;46.60;;
11835;SDS011;5977;51.972;7.640;2022-12-01T09:08:39;148.00;;;46.90;;
11835;SDS011;5977;51.972;7.640;2022-12-01T09:11:09;147.60;;;46.70;;
11835;SDS011;5977;51.972;7.640;2022-12-01T09:13:38;147.77;;;46.87;;
11835;SDS011;5977;51.972;7.640;2022-12-01T09:16:08;147.87;;;46.80;;
11835;SDS011;5977;51.972;7.640;2022-12-01T09:18:39;147.10;;;46.57;;
11835;SDS011;5977;51.972;7.640;2022-12-01T09:21:09;147.77;;;46.73;;
11835;SDS011;5977;51.972;7.640;2022-12-01T09:23:37;148.23;;;46.90;;
11835;SDS011;5977;51.972;7.640;2022-12-01T09:26:06;148.23;;;47.00;;
11835;SDS011;5977;51.972;7.640;2022-12-01T09:28:39;147.67;;;46.70;;
11835;SDS011;5977;51.972;7.640;2022-12-01T09:31:07;147.97;;;46.83;;
11835;SDS011;5977;51.972;7.640;2022-12-01T09:36:56;148.27;;;46.90;;
11835;SDS011;5977;51.972;7.640;2022-12-01T09:39:24;148.40;;;47.03;;
11835;SDS011;5977;51.972;7.640;2022-12-01T09:41:53;147.73;;;46.83;;
11835;SDS011;5977;51.972;7.640;2022-12-01T09:44:27;148.27;;;46.97;;
11835;SDS011;5977;51.972;7.640;2022-12-01T09:47:03;148.07;;;46.90;;
11835;SDS011;5977;51.972;7.640;2022-12-01T09:49:53;148.30;;;47.00;;
11835;SDS011;5977;51.972;7.640;2022-12-01T09:52:26;148.07;;;46.97;;
11835;SDS011;5977;51.972;7.640;2022-12-01T09:54:56;148.10;;;46.80;;
11835;SDS011;5977;51.972;7.640;2022-12-01T09:57:27;148.00;;;46.90;;
11835;SDS011;5977;51.972;7.640;2022-12-01T09:59:57;148.27;;;47.00;;
11835;SDS011;5977;51.972;7.640;2022-12-01T10:02:28;148.10;;;47.00;;
11835;SDS011;5977;51.972;7.640;2022-12-01T10:05:01;148.50;;;47.00;;
11835;SDS011;5977;51.972;7.640;2022-12-01T10:07:33;148.33;;;46.97;;
11835;SDS011;5977;51.972;7.640;2022-12-01T10:10:06;148.53;;;47.10;;
11835;SDS011;5977;51.972;7.640;2022-12-01T10:12:40;148.97;;;47.27;;
11835;SDS011;5977;51.972;7.640;2022-12-01T10:15:23;148.20;;;46.83;;
11835;SDS011;5977;51.972;7.640;2022-12-01T10:18:03;148.40;;;47.07;;
11835;SDS011;5977;51.972;7.640;2022-12-01T10:20:40;148.47;;;47.00;;
11835;SDS011;5977;51.972;7.640;2022-12-01T10:23:22;148.70;;;47.20;;
11835;SDS011;5977;51.972;7.640;2022-12-01T10:26:02;151.50;;;47.87;;
11835;SDS011;5977;51.972;7.640;2022-12-01T10:28:44;155.73;;;48.83;;
11835;SDS011;5977;51.972;7.640;2022-12-01T10:31:20;157.67;;;49.47;;
11835;SDS011;5977;51.972;7.640;2022-12-01T10:33:57;157.17;;;49.37;;
11835;SDS011;5977;51.972;7.640;2022-12-01T10:36:27;158.77;;;49.77;;
11835;SDS011;5977;51.972;7.640;2022-12-01T10:38:58;159.67;;;50.00;;
11835;SDS011;5977;51.972;7.640;2022-12-01T10:41:26;160.43;;;50.27;;
11835;SDS011;5977;51.972;7.640;2022-12-01T10:43:59;161.00;;;50.37;;
11835;SDS011;5977;51.972;7.640;2022-12-01T10:46:32;160.40;;;50.33;;
11835;SDS011;5977;51.972;7.640;2022-12-01T10:49:07;161.27;;;50.53;;
11835;SDS011;5977;51.972;7.640;2022-12-01T10:51:47;161.63;;;50.63;;
11835;SDS011;5977;51.972;7.640;2022-12-01T10:54:18;161.57;;;50.43;;
11835;SDS011;5977;51.972;7.640;2022-12-01T10:56:48;161.83;;;50.70;;
11835;SDS011;5977;51.972;7.640;2022-12-01T10:59:22;161.20;;;50.47;;
11835;SDS011;5977;51.972;7.640;2022-12-01T11:01:53;161.63;;;50.53;;
11835;SDS011;5977;51.972;7.640;2022-12-01T11:04:34;161.77;;;50.60;;
11835;SDS011;5977;51.972;7.640;2022-12-01T11:07:14;162.47;;;51.13;;
11835;SDS011;5977;51.972;7.640;2022-12-01T11:09:47;162.47;;;51.07;;
11835;SDS011;5977;51.972;7.640;2022-12-01T11:12:26;161.87;;;50.97;;
11835;SDS011;5977;51.972;7.640;2022-12-01T11:14:54;162.20;;;50.97;;
11835;SDS011;5977;51.972;7.640;2022-12-01T11:17:27;162.57;;;50.97;;
11835;SDS011;5977;51.972;7.640;2022-12-01T11:19:58;162.13;;;50.87;;
11835;SDS011;5977;51.972;7.640;2022-12-01T11:22:43;162.00;;;51.03;;
11835;SDS011;5977;51.972;7.640;2022-12-01T11:25:18;161.60;;;50.73;;
11835;SDS011;5977;51.972;7.640;2022-12-01T11:27:48;161.97;;;50.97;;
11835;SDS011;5977;51.972;7.640;2022-12-01T11:30:20;161.13;;;50.57;;
11835;SDS011;5977;51.972;7.640;2022-12-01T11:32:50;161.40;;;50.63;;
11835;SDS011;5977;51.972;7.640;2022-12-01T11:35:21;161.33;;;50.60;;
11835;SDS011;5977;51.972;7.640;2022-12-01T11:37:50;161.43;;;50.73;;
11835;SDS011;5977;51.972;7.640;2022-12-01T11:40:45;161.07;;;50.33;;
11835;SDS011;5977;51.972;7.640;2022-12-01T11:43:18;161.20;;;50.50;;
11835;SDS011;5977;51.972;7.640;2022-12-01T11:45:50;161.50;;;50.57;;
11835;SDS011;5977;51.972;7.640;2022-12-01T11:48:22;160.17;;;50.10;;
11835;SDS011;5977;51.972;7.640;2022-12-01T11:51:02;161.00;;;50.30;;
11835;SDS011;5977;51.972;7.640;2022-12-01T11:53:33;160.40;;;50.13;;
11835;SDS011;5977;51.972;7.640;2022-12-01T11:56:17;160.13;;;50.30;;
11835;SDS011;5977;51.972;7.640;2022-12-01T11:58:49;160.93;;;50.33;;
11835;SDS011;5977;51.972;7.640;2022-12-01T12:01:24;161.93;;;50.67;;
11835;SDS011;5977;51.972;7.640;2022-12-01T12:04:06;160.77;;;50.20;;
11835;SDS011;5977;51.972;7.640;2022-12-01T12:06:47;162.27;;;50.63;;
11835;SDS011;5977;51.972;7.640;2022-12-01T12:09:26;161.73;;;50.70;;
11835;SDS011;5977;51.972;7.640;2022-12-01T12:12:13;160.83;;;50.33;;
11835;SDS011;5977;51.972;7.640;2022-12-01T12:14:52;162.40;;;50.87;;
11835;SDS011;5977;51.972;7.640;2022-12-01T12:17:28;161.43;;;50.47;;
11835;SDS011;5977;51.972;7.640;2022-12-01T12:20:17;161.47;;;50.73;;
11835;SDS011;5977;51.972;7.640;2022-12-01T12:22:59;162.20;;;50.80;;
11835;SDS011;5977;51.972;7.640;2022-12-01T12:25:46;162.30;;;50.97;;
11835;SDS011;5977;51.972;7.640;2022-12-01T12:28:26;162.40;;;50.93;;
11835;SDS011;5977;51.972;7.640;2022-12-01T12:31:06;162.63;;;51.10;;
11835;SDS011;5977;51.972;7.640;2022-12-01T12:33:46;163.57;;;51.37;;
11835;SDS011;5977;51.972;7.640;2022-12-01T12:36:39;163.43;;;51.17;;
11835;SDS011;5977;51.972;7.640;2022-12-01T12:39:24;163.23;;;51.20;;
11835;SDS011;5977;51.972;7.640;2022-12-01T12:42:02;163.27;;;51.27;;
11835;SDS011;5977;51.972;7.640;2022-12-01T12:44:44;162.80;;;50.87;;
11835;SDS011;5977;51.972;7.640;2022-12-01T12:47:21;163.20;;;51.00;;
11835;SDS011;5977;51.972;7.640;2022-12-01T12:50:11;162.87;;;51.13;;
11835;SDS011;5977;51.972;7.640;2022-12-01T12:52:47;163.07;;;50.87;;
11835;SDS011;5977;51.972;7.640;2022-12-01T12:55:18;162.60;;;51.23;;
11835;SDS011;5977;51.972;7.640;2022-12-01T12:57:51;162.73;;;51.13;;
11835;SDS011;5977;51.972;7.640;2022-12-01T13:00:23;163.17;;;51.33;;
11835;SDS011;5977;51.972;7.640;2022-12-01T13:02:54;162.83;;;51.13;;
11835;SDS011;5977;51.972;7.640;2022-12-01T13:05:26;163.10;;;51.33;;
11835;SDS011;5977;51.972;7.640;2022-12-01T13:08:01;162.37;;;51.27;;
11835;SDS011;5977;51.972;7.640;2022-12-01T13:10:35;162.27;;;51.17;;
11835;SDS011;5977;51.972;7.640;2022-12-01T13:13:11;162.53;;;51.27;;
11835;SDS011;5977;51.972;7.640;2022-12-01T13:15:48;162.20;;;51.13;;
11835;SDS011;5977;51.972;7.640;2022-12-01T13:18:24;161.73;;;50.93;;
11835;SDS011;5977;51.972;7.640;2022-12-01T13:20:55;162.67;;;51.17;;
11835;SDS011;5977;51.972;7.640;2022-12-01T13:23:24;161.80;;;50.87;;
11835;SDS011;5977;51.972;7.640;2022-12-01T13:25:53;162.67;;;51.13;;
11835;SDS011;5977;51.972;7.640;2022-12-01T13:28:26;162.43;;;51.23;;
11835;SDS011;5977;51.972;7.640;2022-12-01T13:31:01;162.27;;;51.10;;
11835;SDS011;5977;51.972;7.640;2022-12-01T13:33:32;162.03;;;50.87;;
11835;SDS011;5977;51.972;7.640;2022-12-01T13:36:02;161.70;;;50.77;;
11835;SDS011;5977;51.972;7.640;2022-12-01T13:38:57;161.50;;;50.83;;
11835;SDS011;5977;51.972;7.640;2022-12-01T13:41:28;162.27;;;51.17;;
11835;SDS011;5977;51.972;7.640;2022-12-01T13:44:00;162.27;;;51.17;;
11835;SDS011;5977;51.972;7.640;2022-12-01T13:46:32;161.93;;;50.90;;
11835;SDS011;5977;51.972;7.640;2022-12-01T13:49:34;161.63;;;50.87;;
11835;SDS011;5977;51.972;7.640;2022-12-01T13:52:23;162.87;;;51.20;;
11835;SDS011;5977;51.972;7.640;2022-12-01T13:55:03;162.30;;;51.07;;
11835;SDS011;5977;51.972;7.640;2022-12-01T14:00:52;163.37;;;51.50;;
11835;SDS011;5977;51.972;7.640;2022-12-01T14:03:58;161.63;;;50.80;;
11835;SDS011;5977;51.972;7.640;2022-12-01T14:06:44;163.00;;;51.37;;
11835;SDS011;5977;51.972;7.640;2022-12-01T14:09:15;162.43;;;51.03;;
11835;SDS011;5977;51.972;7.640;2022-12-01T14:11:53;162.43;;;51.00;;
11835;SDS011;5977;51.972;7.640;2022-12-01T14:14:24;162.80;;;51.37;;
11835;SDS011;5977;51.972;7.640;2022-12-01T14:16:55;162.73;;;51.43;;
11835;SDS011;5977;51.972;7.640;2022-12-01T14:19:31;163.10;;;51.37;;
11835;SDS011;5977;51.972;7.640;2022-12-01T14:22:02;162.20;;;50.73;;
11835;SDS011;5977;51.972;7.640;2022-12-01T14:24:33;162.80;;;50.53;;
11835;SDS011;5977;51.972;7.640;2022-12-01T14:27:02;161.57;;;49.87;;
11835;SDS011;5977;51.972;7.640;2022-12-01T14:29:32;159.23;;;49.30;;
11835;SDS011;5977;51.972;7.640;2022-12-01T14:32:04;159.07;;;49.20;;
11835;SDS011;5977;51.972;7.640;2022-12-01T14:34:53;156.73;;;48.43;;
11835;SDS011;5977;51.972;7.640;2022-12-01T14:37:27;155.53;;;48.00;;
11835;SDS011;5977;51.972;7.640;2022-12-01T14:40:05;155.67;;;48.10;;
11835;SDS011;5977;51.972;7.640;2022-12-01T14:42:39;154.80;;;47.90;;
11835;SDS011;5977;51.972;7.640;2022-12-01T14:45:29;153.73;;;47.70;;
11835;SDS011;5977;51.972;7.640;2022-12-01T14:48:01;154.23;;;47.90;;
11835;SDS011;5977;51.972;7.640;2022-12-01T14:50:35;153.93;;;47.80;;
11835;SDS011;5977;51.972;7.640;2022-12-01T14:53:17;152.93;;;47.63;;
11835;SDS011;5977;51.972;7.640;2022-12-01T14:55:51;152.27;;;47.30;;
11835;SDS011;5977;51.972;7.640;2022-12-01T14:58:23;152.30;;;47.50;;
11835;SDS011;5977;51.972;7.640;2022-12-01T15:01:01;152.63;;;47.57;;
11835;SDS011;5977;51.972;7.640;2022-12-01T15:03:32;154.17;;;48.10;;